createdAt,value
2022-10-11T00:01:17.408Z,4.78
2022-10-11T00:03:43.909Z,4.72
2022-10-11T00:06:10.469Z,4.73
2022-10-11T00:08:37.093Z,4.74
2022-10-11T00:11:06.713Z,4.74
2022-10-11T00:13:33.486Z,4.68
2022-10-11T00:16:00.141Z,4.64
2022-10-11T00:18:26.632Z,4.62
2022-10-11T00:21:12.591Z,4.55
2022-10-11T00:23:40.021Z,4.50
2022-10-11T00:26:09.935Z,4.45
2022-10-11T00:28:37.177Z,4.46
2022-10-11T00:31:08.017Z,4.46
2022-10-11T00:33:34.977Z,4.48
2022-10-11T00:36:01.929Z,4.50
2022-10-11T00:38:31.874Z,4.49
2022-10-11T00:40:59.191Z,4.46
2022-10-11T00:43:27.712Z,4.43
2022-10-11T00:46:24.882Z,4.39
2022-10-11T00:49:01.077Z,4.33
2022-10-11T00:51:37.607Z,4.27
2022-10-11T00:54:06.071Z,4.25
2022-10-11T00:56:38.940Z,4.17
2022-10-11T00:59:12.330Z,4.14
2022-10-11T01:01:38.949Z,4.11
2022-10-11T01:04:06.009Z,4.06
2022-10-11T01:06:34.040Z,4.04
2022-10-11T01:09:00.473Z,4.00
2022-10-11T01:11:29.762Z,3.98
2022-10-11T01:14:40.890Z,3.99
2022-10-11T01:17:13.885Z,3.99
2022-10-11T01:20:04.424Z,3.94
2022-10-11T01:22:33.840Z,3.90
2022-10-11T01:25:16.031Z,3.89
2022-10-11T01:28:04.274Z,3.89
2022-10-11T01:30:34.142Z,3.87
2022-10-11T01:33:13.100Z,3.84
2022-10-11T01:36:06.478Z,3.81
2022-10-11T01:38:45.837Z,3.80
2022-10-11T01:41:23.589Z,3.83
2022-10-11T01:43:54.423Z,3.84
2022-10-11T01:46:21.751Z,3.79
2022-10-11T01:48:53.322Z,3.76
2022-10-11T01:51:24.254Z,3.75
2022-10-11T01:54:02.608Z,3.77
2022-10-11T01:56:44.166Z,3.79
2022-10-11T01:59:48.401Z,3.79
2022-10-11T02:02:20.917Z,3.74
2022-10-11T02:04:54.435Z,3.69
2022-10-11T02:07:53.189Z,3.70
2022-10-11T02:10:41.782Z,3.67
2022-10-11T02:13:23.422Z,3.68
2022-10-11T02:15:52.312Z,3.68
2022-10-11T02:18:23.486Z,3.65
2022-10-11T02:20:51.891Z,3.68
2022-10-11T02:23:29.745Z,3.65
2022-10-11T02:25:57.714Z,3.67
2022-10-11T02:28:29.679Z,3.66
2022-10-11T02:30:58.130Z,3.61
2022-10-11T02:33:31.706Z,3.56
2022-10-11T02:36:05.926Z,3.56
2022-10-11T02:38:40.094Z,3.52
2022-10-11T02:41:23.230Z,3.50
2022-10-11T02:43:57.571Z,3.51
2022-10-11T02:46:26.425Z,3.50
2022-10-11T02:48:53.867Z,3.49
2022-10-11T02:51:20.338Z,3.48
2022-10-11T02:53:46.760Z,3.46
2022-10-11T02:56:13.198Z,3.46
2022-10-11T02:58:39.602Z,3.43
2022-10-11T03:01:06.453Z,3.42
2022-10-11T03:03:32.902Z,3.44
2022-10-11T03:06:03.957Z,3.45
2022-10-11T03:08:31.468Z,3.46
2022-10-11T03:10:58.112Z,3.48
2022-10-11T03:13:24.600Z,3.48
2022-10-11T03:16:07.365Z,3.47
2022-10-11T03:18:34.030Z,3.50
2022-10-11T03:21:00.457Z,3.50
2022-10-11T03:23:27.022Z,3.50
2022-10-11T03:25:53.537Z,3.46
2022-10-11T03:28:20.975Z,3.41
2022-10-11T03:30:48.499Z,3.40
2022-10-11T03:33:15.170Z,3.37
2022-10-11T03:35:44.774Z,3.35
2022-10-11T03:38:16.684Z,3.32
2022-10-11T03:40:44.034Z,3.35
2022-10-11T03:43:10.948Z,3.34
2022-10-11T03:45:37.760Z,3.34
2022-10-11T03:48:04.602Z,3.35
2022-10-11T03:50:31.264Z,3.35
2022-10-11T03:52:58.307Z,3.36
2022-10-11T03:55:24.760Z,3.34
2022-10-11T03:57:51.169Z,3.28
2022-10-11T04:00:17.802Z,3.24
2022-10-11T04:02:44.443Z,3.29
2022-10-11T04:05:12.579Z,3.26
2022-10-11T04:07:39.625Z,3.26
2022-10-11T04:10:07.197Z,3.24
2022-10-11T04:12:34.682Z,3.26
2022-10-11T04:15:01.146Z,3.27
2022-10-11T04:17:27.594Z,3.24
2022-10-11T04:19:54.043Z,3.19
2022-10-11T04:22:20.475Z,3.18
2022-10-11T04:24:46.918Z,3.17
2022-10-11T04:27:13.341Z,3.15
2022-10-11T04:29:39.743Z,3.12
2022-10-11T04:32:06.302Z,3.08
2022-10-11T04:34:32.725Z,3.07
2022-10-11T04:36:59.190Z,3.00
2022-10-11T04:39:25.614Z,2.97
2022-10-11T04:41:52.102Z,3.00
2022-10-11T04:44:18.494Z,3.05
2022-10-11T04:46:44.889Z,3.10
2022-10-11T04:49:11.351Z,3.17
2022-10-11T04:51:37.962Z,3.20
2022-10-11T04:54:04.468Z,3.20
2022-10-11T04:56:30.891Z,3.22
2022-10-11T04:58:57.388Z,3.29
2022-10-11T05:01:23.839Z,3.38
2022-10-11T05:03:50.300Z,3.42
2022-10-11T05:06:16.895Z,3.45
2022-10-11T05:08:43.380Z,3.47
2022-10-11T05:11:16.195Z,3.46
2022-10-11T05:13:43.353Z,3.47
2022-10-11T05:16:11.409Z,3.46
2022-10-11T05:18:38.974Z,3.47
2022-10-11T05:21:17.863Z,3.48
2022-10-11T05:23:45.197Z,3.50
2022-10-11T05:26:11.694Z,3.47
2022-10-11T05:28:38.185Z,3.38
2022-10-11T05:31:05.466Z,3.31
2022-10-11T05:33:32.308Z,3.25
2022-10-11T05:35:58.763Z,3.25
2022-10-11T05:38:25.165Z,3.23
2022-10-11T05:40:52.125Z,3.25
2022-10-11T05:43:18.803Z,3.24
2022-10-11T05:45:46.431Z,3.28
2022-10-11T05:48:13.088Z,3.31
2022-10-11T05:50:39.611Z,3.34
2022-10-11T05:53:06.493Z,3.31
2022-10-11T05:55:40.972Z,3.28
2022-10-11T05:58:09.787Z,3.26
2022-10-11T06:00:37.965Z,3.24
2022-10-11T06:03:08.524Z,3.26
2022-10-11T06:05:35.539Z,3.28
2022-10-11T06:08:02.639Z,3.33
2022-10-11T06:10:29.481Z,3.32
2022-10-11T06:12:55.913Z,3.35
2022-10-11T06:15:22.504Z,3.40
2022-10-11T06:17:48.958Z,3.46
2022-10-11T06:20:15.787Z,3.49
2022-10-11T06:22:42.660Z,3.50
2022-10-11T06:25:09.407Z,3.55
2022-10-11T06:27:35.932Z,3.57
2022-10-11T06:30:02.842Z,3.67
2022-10-11T06:32:29.276Z,3.78
2022-10-11T06:34:55.766Z,3.87
2022-10-11T06:37:22.208Z,3.96
2022-10-11T06:39:50.300Z,4.08
2022-10-11T06:42:17.229Z,4.18
2022-10-11T06:44:43.683Z,4.29
2022-10-11T06:47:10.200Z,4.44
2022-10-11T06:49:36.686Z,4.52
2022-10-11T06:52:03.164Z,4.56
2022-10-11T06:54:29.665Z,4.57
2022-10-11T06:56:56.080Z,4.58
2022-10-11T06:59:22.519Z,4.62
2022-10-11T07:01:48.940Z,4.65
2022-10-11T07:04:15.390Z,4.71
2022-10-11T07:06:42.026Z,4.78
2022-10-11T07:09:09.019Z,4.82
2022-10-11T07:11:36.029Z,4.86
2022-10-11T07:14:07.653Z,4.90
2022-10-11T07:16:37.652Z,4.98
2022-10-11T07:19:05.591Z,5.08
2022-10-11T07:21:33.610Z,5.17
2022-10-11T07:24:00.673Z,5.31
2022-10-11T07:26:28.095Z,5.41
2022-10-11T07:28:54.694Z,5.56
2022-10-11T07:31:24.194Z,5.67
2022-10-11T07:33:50.944Z,5.75
2022-10-11T07:36:17.536Z,5.87
2022-10-11T07:38:46.236Z,5.95
2022-10-11T07:41:13.907Z,6.03
2022-10-11T07:43:40.560Z,6.12
2022-10-11T07:46:07.775Z,6.18
2022-10-11T07:48:36.237Z,6.24
2022-10-11T07:51:11.918Z,6.31
2022-10-11T07:53:49.791Z,6.36
2022-10-11T07:56:19.806Z,6.41
2022-10-11T07:58:53.953Z,6.47
2022-10-11T08:01:20.848Z,6.52
2022-10-11T08:03:48.218Z,6.57
2022-10-11T08:06:22.909Z,6.65
2022-10-11T08:08:49.617Z,6.76
2022-10-11T08:11:36.670Z,6.90
2022-10-11T08:14:08.360Z,7.01
2022-10-11T08:16:36.128Z,7.12
2022-10-11T08:19:03.374Z,7.26
2022-10-11T08:21:30.722Z,7.40
2022-10-11T08:23:57.398Z,7.54
2022-10-11T08:26:24.494Z,7.69
2022-10-11T08:28:51.020Z,7.84
2022-10-11T08:31:17.528Z,8.02
2022-10-11T08:33:44.338Z,8.20
2022-10-11T08:36:11.573Z,8.33
2022-10-11T08:38:39.005Z,8.44
2022-10-11T08:41:25.548Z,8.53
2022-10-11T08:44:06.343Z,8.62
2022-10-11T08:46:35.195Z,8.72
2022-10-11T08:49:02.430Z,8.88
2022-10-11T08:51:52.523Z,9.00
2022-10-11T08:54:32.107Z,9.14
2022-10-11T08:57:00.476Z,9.26
2022-10-11T08:59:36.680Z,9.37
2022-10-11T09:03:07.084Z,9.50
2022-10-11T09:05:54.479Z,9.68
2022-10-11T09:08:31.328Z,9.78
2022-10-11T09:11:19.427Z,9.92
2022-10-11T09:13:51.421Z,10.03
2022-10-11T09:16:36.033Z,10.13
2022-10-11T09:19:30.265Z,10.26
2022-10-11T09:22:12.078Z,10.41
2022-10-11T09:25:05.719Z,10.58
2022-10-11T09:28:02.891Z,10.67
2022-10-11T09:30:30.223Z,10.74
2022-10-11T09:33:12.234Z,10.83
2022-10-11T09:35:46.322Z,10.96
2022-10-11T09:38:31.306Z,11.09
2022-10-11T09:41:05.974Z,11.24
2022-10-11T09:43:32.469Z,11.35
2022-10-11T09:45:58.988Z,11.47
2022-10-11T09:48:32.999Z,11.56
2022-10-11T09:51:04.907Z,11.61
2022-10-11T09:53:51.447Z,11.82
2022-10-11T09:56:18.100Z,12.00
2022-10-11T09:58:44.798Z,12.17
2022-10-11T10:01:23.160Z,12.29
2022-10-11T10:04:08.442Z,12.40
2022-10-11T10:06:35.323Z,12.53
2022-10-11T10:09:25.371Z,12.63
2022-10-11T10:11:53.211Z,12.78
2022-10-11T10:14:23.886Z,13.00
2022-10-11T10:17:00.647Z,13.12
2022-10-11T10:19:27.484Z,13.22
2022-10-11T10:21:56.323Z,13.28
2022-10-11T10:24:41.126Z,13.43
2022-10-11T10:27:10.560Z,13.40
2022-10-11T10:29:37.726Z,13.37
2022-10-11T10:32:14.994Z,13.38
2022-10-11T10:34:58.377Z,13.39
2022-10-11T10:37:41.653Z,13.44
2022-10-11T10:40:22.267Z,13.53
2022-10-11T10:42:50.218Z,13.57
2022-10-11T10:45:21.471Z,13.59
2022-10-11T10:47:54.290Z,13.63
2022-10-11T10:50:30.575Z,13.69
2022-10-11T10:53:23.961Z,13.73
2022-10-11T10:56:05.590Z,13.80
2022-10-11T10:58:56.491Z,13.98
2022-10-11T11:01:25.009Z,14.15
2022-10-11T11:04:18.756Z,14.24
2022-10-11T11:06:51.088Z,14.31
2022-10-11T11:09:30.900Z,14.36
2022-10-11T11:12:12.515Z,14.73
2022-10-11T11:14:51.026Z,14.99
2022-10-11T11:17:29.591Z,15.32
2022-10-11T11:20:33.588Z,15.53
2022-10-11T11:23:35.126Z,15.29
2022-10-11T11:26:42.003Z,15.16
2022-10-11T11:29:17.472Z,15.09
2022-10-11T11:32:15.869Z,15.06
2022-10-11T11:34:48.021Z,15.04
2022-10-11T11:37:37.258Z,15.07
2022-10-11T11:40:18.122Z,14.96
2022-10-11T11:42:50.666Z,14.79
2022-10-11T11:45:31.290Z,14.71
2022-10-11T11:48:10.356Z,14.66
2022-10-11T11:50:40.643Z,14.60
2022-10-11T11:53:32.470Z,14.63
2022-10-11T11:56:15.264Z,14.56
2022-10-11T11:58:52.870Z,14.59
2022-10-11T12:01:41.413Z,14.64
2022-10-11T12:04:30.020Z,14.88
2022-10-11T12:07:17.970Z,15.09
2022-10-11T12:09:50.745Z,15.05
2022-10-11T12:12:38.149Z,15.03
2022-10-11T12:15:23.331Z,15.11
2022-10-11T12:17:56.119Z,15.33
2022-10-11T12:20:28.808Z,15.49
2022-10-11T12:22:59.939Z,15.63
2022-10-11T12:25:26.334Z,15.74
2022-10-11T12:27:56.015Z,15.82
2022-10-11T12:31:04.045Z,15.96
2022-10-11T12:33:30.669Z,16.01
2022-10-11T12:36:04.137Z,15.77
2022-10-11T12:38:39.892Z,15.62
2022-10-11T12:41:09.311Z,15.47
2022-10-11T12:44:12.907Z,15.37
2022-10-11T12:46:51.208Z,15.30
2022-10-11T12:49:32.269Z,15.25
2022-10-11T12:52:17.641Z,15.31
2022-10-11T12:54:59.418Z,15.66
2022-10-11T12:57:50.870Z,15.84
2022-10-11T13:00:23.621Z,15.81
2022-10-11T13:02:50.433Z,15.92
2022-10-11T13:05:20.898Z,16.08
2022-10-11T13:07:48.370Z,16.18
2022-10-11T13:10:28.752Z,16.04
2022-10-11T13:12:59.515Z,16.15
2022-10-11T13:15:26.543Z,16.06
2022-10-11T13:17:59.170Z,15.92
2022-10-11T13:20:28.746Z,15.79
2022-10-11T13:22:56.731Z,15.71
2022-10-11T13:25:26.275Z,15.56
2022-10-11T13:27:56.178Z,15.51
2022-10-11T13:30:25.907Z,15.54
2022-10-11T13:32:53.283Z,15.53
2022-10-11T13:35:29.255Z,15.54
2022-10-11T13:37:56.095Z,15.53
2022-10-11T13:40:23.629Z,15.50
2022-10-11T13:42:52.138Z,15.43
2022-10-11T13:45:21.628Z,15.35
2022-10-11T13:47:49.705Z,15.32
2022-10-11T13:50:16.164Z,15.30
2022-10-11T13:53:06.874Z,15.37
2022-10-11T13:55:49.826Z,15.43
2022-10-11T13:58:30.218Z,15.43
2022-10-11T14:00:59.760Z,15.48
2022-10-11T14:03:47.463Z,15.51
2022-10-11T14:06:14.117Z,15.46
2022-10-11T14:08:51.780Z,15.50
2022-10-11T14:11:36.063Z,15.70
2022-10-11T14:14:34.252Z,15.84
2022-10-11T14:17:06.621Z,15.94
2022-10-11T14:19:33.032Z,16.15
2022-10-11T14:21:59.518Z,16.14
2022-10-11T14:24:25.957Z,15.92
2022-10-11T14:26:56.370Z,15.88
2022-10-11T14:29:34.598Z,15.94
2022-10-11T14:32:31.778Z,16.03
2022-10-11T14:34:58.379Z,16.08
2022-10-11T14:37:25.544Z,16.13
2022-10-11T14:39:52.380Z,16.13
2022-10-11T14:42:19.148Z,16.16
2022-10-11T14:44:45.677Z,16.17
2022-10-11T14:47:16.827Z,16.15
2022-10-11T14:49:43.447Z,16.06
2022-10-11T14:52:13.733Z,16.00
2022-10-11T14:54:41.176Z,15.99
2022-10-11T14:57:08.015Z,16.01
2022-10-11T14:59:37.026Z,15.89
2022-10-11T15:02:06.075Z,15.68
2022-10-11T15:04:33.316Z,15.30
2022-10-11T15:07:00.164Z,15.23
2022-10-11T15:09:26.710Z,15.02
2022-10-11T15:11:54.889Z,14.99
2022-10-11T15:14:25.255Z,14.95
2022-10-11T15:16:52.356Z,14.88
2022-10-11T15:19:22.085Z,14.84
2022-10-11T15:22:45.886Z,14.77
2022-10-11T15:25:12.362Z,14.69
2022-10-11T15:27:38.800Z,14.60
2022-10-11T15:30:31.523Z,14.55
2022-10-11T15:32:58.039Z,14.54
2022-10-11T15:35:26.148Z,14.47
2022-10-11T15:37:54.830Z,14.40
2022-10-11T15:40:25.207Z,14.36
2022-10-11T15:42:53.793Z,14.30
2022-10-11T15:45:21.351Z,14.22
2022-10-11T15:47:48.585Z,14.19
2022-10-11T15:50:37.472Z,14.18
2022-10-11T15:53:08.412Z,14.14
2022-10-11T15:55:38.148Z,14.09
2022-10-11T15:58:05.049Z,14.02
2022-10-11T16:00:31.586Z,13.93
2022-10-11T16:02:59.094Z,13.83
2022-10-11T16:05:27.788Z,13.74
2022-10-11T16:07:54.909Z,13.61
2022-10-11T16:10:21.818Z,13.46
2022-10-11T16:12:48.890Z,13.37
2022-10-11T16:15:15.520Z,13.28
2022-10-11T16:17:41.958Z,13.17
2022-10-11T16:20:09.221Z,13.02
2022-10-11T16:22:36.571Z,12.86
2022-10-11T16:25:04.457Z,12.70
2022-10-11T16:27:31.051Z,12.60
2022-10-11T16:29:57.833Z,12.49
2022-10-11T16:32:25.491Z,12.34
2022-10-11T16:34:51.922Z,12.22
2022-10-11T16:37:18.685Z,12.12
2022-10-11T16:39:45.833Z,12.00
2022-10-11T16:42:12.287Z,11.88
2022-10-11T16:44:39.376Z,11.77
2022-10-11T16:47:06.856Z,11.70
2022-10-11T16:49:33.997Z,11.60
2022-10-11T16:52:02.466Z,11.55
2022-10-11T16:54:30.208Z,11.50
2022-10-11T16:56:58.362Z,11.43
2022-10-11T16:59:24.904Z,11.39
2022-10-11T17:01:51.544Z,11.32
2022-10-11T17:04:18.274Z,11.29
2022-10-11T17:06:45.078Z,11.27
2022-10-11T17:09:11.647Z,11.22
2022-10-11T17:11:38.479Z,11.15
2022-10-11T17:14:05.915Z,11.11
2022-10-11T17:16:32.729Z,11.06
2022-10-11T17:18:59.199Z,11.00
2022-10-11T17:21:25.771Z,10.97
2022-10-11T17:23:52.443Z,10.95
2022-10-11T17:26:26.223Z,10.91
2022-10-11T17:28:54.977Z,10.83
2022-10-11T17:31:21.962Z,10.77
2022-10-11T17:33:48.858Z,10.74
2022-10-11T17:36:23.013Z,10.68
2022-10-11T17:38:50.594Z,10.59
2022-10-11T17:41:17.831Z,10.54
2022-10-11T17:43:44.516Z,10.48
2022-10-11T17:46:13.585Z,10.46
2022-10-11T17:48:40.526Z,10.43
2022-10-11T17:51:09.691Z,10.38
2022-10-11T17:53:36.999Z,10.30
2022-10-11T17:56:07.835Z,10.24
2022-10-11T17:58:34.954Z,10.20
2022-10-11T18:01:14.429Z,10.18
2022-10-11T18:03:42.575Z,10.12
2022-10-11T18:06:13.558Z,10.05
2022-10-11T18:08:40.968Z,9.99
2022-10-11T18:11:13.526Z,9.95
2022-10-11T18:13:42.857Z,9.93
2022-10-11T18:16:10.759Z,9.86
2022-10-11T18:18:37.912Z,9.80
2022-10-11T18:21:04.447Z,9.74
2022-10-11T18:23:30.985Z,9.69
2022-10-11T18:25:57.396Z,9.64
2022-10-11T18:28:24.051Z,9.61
2022-10-11T18:30:50.702Z,9.58
2022-10-11T18:33:17.569Z,9.56
2022-10-11T18:35:44.002Z,9.53
2022-10-11T18:38:10.507Z,9.48
2022-10-11T18:40:41.320Z,9.46
2022-10-11T18:43:11.265Z,9.41
2022-10-11T18:45:37.753Z,9.30
2022-10-11T18:48:04.401Z,9.24
2022-10-11T18:50:34.877Z,9.20
2022-10-11T18:53:02.247Z,9.14
2022-10-11T18:55:28.740Z,9.09
2022-10-11T18:57:55.189Z,9.05
2022-10-11T19:00:40.673Z,9.01
2022-10-11T19:03:07.854Z,8.96
2022-10-11T19:05:34.329Z,8.92
2022-10-11T19:08:00.836Z,8.89
2022-10-11T19:10:27.327Z,8.80
2022-10-11T19:12:53.829Z,8.71
2022-10-11T19:15:20.263Z,8.62
2022-10-11T19:17:46.711Z,8.56
2022-10-11T19:20:13.410Z,8.55
2022-10-11T19:22:39.836Z,8.50
2022-10-11T19:25:06.656Z,8.46
2022-10-11T19:27:33.113Z,8.41
2022-10-11T19:30:00.404Z,8.37
2022-10-11T19:32:26.998Z,8.31
2022-10-11T19:34:53.429Z,8.25
2022-10-11T19:37:19.882Z,8.20
2022-10-11T19:39:46.297Z,8.14
2022-10-11T19:42:12.762Z,8.10
2022-10-11T19:44:39.779Z,8.05
2022-10-11T19:47:06.620Z,8.00
2022-10-11T19:49:34.245Z,7.93
2022-10-11T19:52:01.229Z,7.91
2022-10-11T19:54:28.286Z,7.88
2022-10-11T19:56:54.781Z,7.83
2022-10-11T19:59:21.462Z,7.81
2022-10-11T20:01:52.448Z,7.79
2022-10-11T20:04:47.198Z,7.74
2022-10-11T20:07:06.216Z,7.67
2022-10-11T20:09:32.683Z,7.59
2022-10-11T20:11:59.262Z,7.53
2022-10-11T20:14:26.008Z,7.51
2022-10-11T20:16:52.593Z,7.48
2022-10-11T20:19:19.474Z,7.40
2022-10-11T20:21:46.417Z,7.39
2022-10-11T20:24:12.967Z,7.34
2022-10-11T20:26:40.025Z,7.31
2022-10-11T20:29:06.893Z,7.27
2022-10-11T20:31:38.136Z,7.22
2022-10-11T20:34:07.173Z,7.10
2022-10-11T20:36:39.228Z,7.05
2022-10-11T20:39:06.622Z,7.07
2022-10-11T20:41:39.847Z,7.05
2022-10-11T20:44:10.718Z,7.01
2022-10-11T20:46:38.779Z,6.96
2022-10-11T20:49:11.308Z,6.89
2022-10-11T20:51:41.441Z,6.89
2022-10-11T20:54:08.292Z,6.84
2022-10-11T20:56:35.606Z,6.81
2022-10-11T20:59:02.204Z,6.83
2022-10-11T21:01:34.551Z,6.79
2022-10-11T21:04:02.480Z,6.73
2022-10-11T21:06:30.643Z,6.66
2022-10-11T21:08:58.981Z,6.64
2022-10-11T21:11:27.282Z,6.56
2022-10-11T21:13:56.187Z,6.58
2022-10-11T21:16:22.951Z,6.54
2022-10-11T21:18:57.803Z,6.53
2022-10-11T21:21:25.412Z,6.51
2022-10-11T21:24:00.106Z,6.49
2022-10-11T21:26:27.581Z,6.42
2022-10-11T21:28:54.090Z,6.38
2022-10-11T21:31:21.630Z,6.37
2022-10-11T21:33:48.444Z,6.30
2022-10-11T21:36:20.687Z,6.21
2022-10-11T21:38:48.314Z,6.16
2022-10-11T21:41:17.511Z,6.17
2022-10-11T21:43:44.378Z,6.16
2022-10-11T21:46:13.877Z,6.17
2022-10-11T21:48:40.799Z,6.22
2022-10-11T21:51:07.667Z,6.27
2022-10-11T21:53:34.293Z,6.26
2022-10-11T21:56:01.543Z,6.28
2022-10-11T21:58:28.632Z,6.34
2022-10-11T22:00:55.145Z,6.42
2022-10-11T22:03:21.673Z,6.46
2022-10-11T22:05:48.397Z,6.48
2022-10-11T22:08:15.114Z,6.53
2022-10-11T22:10:52.082Z,6.57
2022-10-11T22:13:18.523Z,6.59
2022-10-11T22:15:45.000Z,6.60
2022-10-11T22:18:11.698Z,6.64
2022-10-11T22:20:38.155Z,6.68
2022-10-11T22:23:04.607Z,6.66
2022-10-11T22:25:30.998Z,6.62
2022-10-11T22:27:57.459Z,6.60
2022-10-11T22:30:23.899Z,6.63
2022-10-11T22:32:52.007Z,6.65
2022-10-11T22:35:19.763Z,6.63
2022-10-11T22:37:46.226Z,6.60
2022-10-11T22:40:12.680Z,6.50
2022-10-11T22:42:39.160Z,6.49
2022-10-11T22:45:05.978Z,6.47
2022-10-11T22:47:32.448Z,6.46
2022-10-11T22:49:58.918Z,6.41
2022-10-11T22:52:25.369Z,6.38
2022-10-11T22:54:51.993Z,6.39
2022-10-11T22:57:18.544Z,6.41
2022-10-11T22:59:45.060Z,6.36
2022-10-11T23:02:11.609Z,6.34
2022-10-11T23:04:38.030Z,6.36
2022-10-11T23:07:05.197Z,6.39
2022-10-11T23:09:31.765Z,6.42
2022-10-11T23:11:59.308Z,6.40
2022-10-11T23:14:25.775Z,6.41
2022-10-11T23:16:52.605Z,6.38
2022-10-11T23:19:19.258Z,6.31
2022-10-11T23:21:46.607Z,6.27
2022-10-11T23:24:13.253Z,6.24
2022-10-11T23:26:39.703Z,6.19
2022-10-11T23:29:06.227Z,6.16
2022-10-11T23:31:32.672Z,6.11
2022-10-11T23:33:59.125Z,6.07
2022-10-11T23:36:26.086Z,6.03
2022-10-11T23:38:58.278Z,6.08
2022-10-11T23:41:27.382Z,6.07
2022-10-11T23:43:53.921Z,6.07
2022-10-11T23:46:20.406Z,6.03
2022-10-11T23:48:47.029Z,6.01
2022-10-11T23:51:14.009Z,5.99
2022-10-11T23:53:41.550Z,5.98
2022-10-11T23:56:09.761Z,5.94
2022-10-11T23:58:36.504Z,5.93
